Flight Track Log - Related Links

Times and Time Zones

All times are in EDT time to prevent confusion due to time zone crossing. See the EGF3062 flight status page for this flight to view local times or setup timezone preferences in your user account.

Time Position Orientation Groundspeed Altitude Reporting Facility
EDT Latitude Longitude Course Direction KTS MPH feet Rate Location/Type
Wed 03:42:04 PM 32.8500 -97.0333 65° Northeast 209 241 2,500  Level Dallas TRACON
Wed 03:43:00 PM 32.6833 -96.8640 90° East  Level FlightAware
Wed 03:43:04 PM 32.7833 -97.0333 180° South 227 261 4,800  Level Dallas TRACON
Wed 03:44:00 PM 32.7021 -96.7438 68° East  Level FlightAware
Wed 03:44:04 PM 32.7167 -97.0333 180° South 226 260 7,100  Level Dallas TRACON
Wed 03:45:00 PM 32.7407 -96.6280 68° East  Level FlightAware
Wed 03:46:00 PM 32.7809 -96.5130 65° Northeast  Level FlightAware
Wed 03:46:34 PM 32.6942 -96.8258 97° East 279 321 10,000  Level Fort Center
Wed 03:47:00 PM 32.8246 -96.3996 65° Northeast  Level FlightAware
Wed 03:47:33 PM 32.7250 -96.7219 71° East 301 346 10,900  Level Fort Center
Wed 03:48:34 PM 32.7642 -96.6178 66° East 332 382 12,200 1,537 Climbing Fort Center
Wed 03:49:34 PM 32.8011 -96.5186 66° East 337 388 14,000 1,916 Climbing Fort Center
Wed 03:50:33 PM 32.8336 -96.4194 69° East 332 382 16,000 1,700 Climbing Fort Center
Wed 03:51:34 PM 32.8642 -96.3303 68° East 324 373 17,400 1,438 Climbing Fort Center
Wed 03:52:34 PM 32.8672 -96.2139 88° East 312 359 18,900 1,311 Climbing Fort Center
Wed 03:53:33 PM 32.8706 -96.1197 88° East 312 359 20,000 1,150 Climbing Fort Center
Wed 03:54:34 PM 32.8714 -95.9986 89° East 322 371 21,200 1,140 Climbing Fort Center
Wed 03:55:34 PM 32.8722 -95.8997 89° East 329 379 22,300 1,150 Climbing Fort Center
Wed 03:56:34 PM 32.8750 -95.7733 88° East 334 384 23,500 1,250 Climbing Fort Center
Wed 03:57:34 PM 32.8756 -95.6697 90° East 339 390 24,800 1,300 Climbing Fort Center
Wed 03:58:34 PM 32.8781 -95.5581 88° East 339 390 26,100 1,350 Climbing Fort Center
Wed 03:59:34 PM 32.8786 -95.4469 90° East 339 390 27,500 1,300 Climbing Fort Center
Wed 04:00:34 PM 32.8831 -95.3378 87° East 339 390 28,700 1,200 Climbing Fort Center
Wed 04:01:34 PM 32.9019 -95.2186 79° East 333 383 29,900 1,150 Climbing Fort Center
Wed 04:02:34 PM 32.9167 -95.1069 81° East 333 383 31,000 1,150 Climbing Fort Center
Wed 04:03:34 PM 32.9356 -94.9953 79° East 333 383 32,200 1,150 Climbing Fort Center
Wed 04:04:34 PM 32.9519 -94.8833 80° East 333 383 33,300 1,160 Climbing Fort Center
Wed 04:05:33 PM 32.9686 -94.7739 80° East 333 383 34,500 850 Climbing Fort Center
Wed 04:06:34 PM 32.9850 -94.6644 80° East 333 383 35,000 248 Climbing Fort Center
Wed 04:07:34 PM 33.0033 -94.5450 80° East 345 397 35,000  Level Fort Center
Wed 04:08:33 PM 33.0211 -94.4206 80° East 362 417 35,000  Level Fort Center
Wed 04:09:34 PM 33.0411 -94.2911 80° East 375 432 35,000  Level Fort Center
Wed 04:10:33 PM 33.0378 -94.1622 92° East 386 444 35,000  Level Fort Center
Wed 04:11:34 PM 33.0300 -94.0289 94° East 391 450 35,000  Level Fort Center
Wed 04:12:34 PM 33.0203 -93.9003 95° East 391 450 35,000  Level Fort Center
Wed 04:13:34 PM 33.0103 -93.7694 95° East 391 450 35,000  Level Fort Center
Wed 04:14:34 PM 33.0044 -93.6433 93° East 385 443 35,000  Level Fort Center
Wed 04:15:34 PM 32.9983 -93.5147 93° East 385 443 35,000  Level Fort Center
Wed 04:16:33 PM 32.9881 -93.3864 95° East 385 443 35,000  Level Fort Center
Wed 04:17:34 PM 32.9800 -93.2631 94° East 385 443 35,000  Level Fort Center
Wed 04:18:34 PM 32.9714 -93.1347 95° East 385 443 35,000  Level Fort Center
Wed 04:19:34 PM 32.9631 -93.0089 94° East 385 443 35,000  Level Fort Center
Wed 04:20:34 PM 32.9544 -92.8856 95° East 385 443 35,000  Level Fort Center
Wed 04:21:34 PM 32.9456 -92.7622 95° East 385 443 35,000  Level Fort Center
Wed 04:22:34 PM 32.9389 -92.6364 94° East 385 443 35,000  Level Fort Center
Wed 04:23:33 PM 32.9278 -92.5133 96° East 385 443 35,000  Level Fort Center
Wed 04:24:34 PM 32.9169 -92.3925 96° East 379 436 35,000  Level Fort Center
Wed 04:25:34 PM 32.9097 -92.2669 94° East 374 430 35,000  Level Fort Center
Wed 04:27:04 PM 32.8936 -92.0942 96° East 377 434 35,000  Level Memphis Center
Wed 04:28:04 PM 32.8789 -91.9603 97° East 377 434 35,000  Level Memphis Center
Wed 04:29:04 PM 32.8700 -91.8364 95° East 372 428 35,000  Level Memphis Center
Wed 04:30:04 PM 32.8589 -91.7125 96° East 372 428 35,000  Level Memphis Center
Wed 04:31:04 PM 32.8475 -91.5886 96° East 372 428 35,000  Level Memphis Center
Wed 04:32:04 PM 32.8383 -91.4675 95° East 372 428 35,000  Level Memphis Center
Wed 04:33:04 PM 32.8289 -91.3436 95° East 372 428 35,000  Level Memphis Center
Wed 04:34:04 PM 32.8172 -91.2175 96° East 372 428 35,000  Level Memphis Center
Wed 04:35:04 PM 32.8056 -91.0939 96° East 372 428 35,000  Level Memphis Center
Wed 04:36:04 PM 32.7958 -90.9678 95° East 372 428 35,000  Level Memphis Center
Wed 04:37:04 PM 32.7817 -90.8417 98° East 377 434 35,000  Level Memphis Center
Wed 04:38:04 PM 32.7694 -90.7131 96° East 382 440 35,000  Level Memphis Center
Wed 04:39:04 PM 32.7594 -90.5844 95° East 388 447 35,000  Level Memphis Center
Wed 04:40:04 PM 32.7469 -90.4561 97° East 388 447 35,000  Level Memphis Center
Wed 04:41:04 PM 32.7344 -90.3278 97° East 388 447 35,000  Level Memphis Center
Wed 04:42:04 PM 32.7239 -90.2117 96° East 393 452 35,000  Level Memphis Center
Wed 04:43:04 PM 32.7092 -90.0833 98° East 393 452 35,000  Level Memphis Center
Wed 04:44:04 PM 32.6983 -89.9550 96° East 393 452 35,000  Level Memphis Center
Wed 04:45:04 PM 32.6853 -89.8217 97° East 393 452 35,000  Level Memphis Center
Wed 04:46:04 PM 32.6722 -89.6933 97° East 393 452 35,000  Level Memphis Center
Wed 04:47:04 PM 32.6611 -89.5628 96° East 393 452 35,000  Level Memphis Center
Wed 04:48:04 PM 32.6475 -89.4344 97° East 393 452 35,000 -550 Level Memphis Center
Wed 04:49:04 PM 32.6339 -89.2892 96° East 393 452 33,900 -1,050 Descending Memphis Center
Wed 04:50:04 PM 32.6203 -89.1611 97° East 393 452 32,900 -1,000 Descending Memphis Center
Wed 04:51:04 PM 32.6064 -89.0281 97° East 393 452 31,900 -1,000 Descending Memphis Center
Wed 04:52:04 PM 32.5922 -88.9000 97° East 393 452 30,900 -1,000 Descending Memphis Center
Wed 04:53:04 PM 32.5803 -88.7694 96° East 393 452 29,900 -950 Descending Memphis Center
Wed 04:54:04 PM 32.5661 -88.6417 97° East 393 452 29,000 -373 Descending Memphis Center
Wed 04:55:45 PM 32.5464 -88.4544 97° East 373 429 28,900 -413 Descending Atlanta Center
Wed 04:56:44 PM 32.5319 -88.3281 98° East 373 429 27,900 -958 Descending Atlanta Center
Wed 04:57:44 PM 32.5178 -88.1967 97° East 378 435 27,000 -893 Descending Atlanta Center
Wed 04:58:45 PM 32.5011 -88.0681 99° East 390 449 26,100 -900 Descending Atlanta Center
Wed 04:59:44 PM 32.4847 -87.9317 98° East 397 457 25,200 -908 Descending Atlanta Center
Wed 05:00:44 PM 32.4719 -87.8033 97° East 397 457 24,300 -1,289 Descending Atlanta Center
Wed 05:01:45 PM 32.4589 -87.6794 97° East 391 450 22,600 -2,150 Descending Atlanta Center
Wed 05:02:44 PM 32.4519 -87.5564 94° East 385 443 20,000 -2,420 Descending Atlanta Center
Wed 05:03:44 PM 32.4533 -87.4381 89° East 373 429 17,800 -2,083 Descending Atlanta Center
Wed 05:04:45 PM 32.4525 -87.3150 90° East 365 420 15,800 -2,000 Descending Atlanta Center
Wed 05:05:44 PM 32.4575 -87.1972 87° East 365 420 13,800 -1,966 Descending Atlanta Center
Wed 05:06:44 PM 32.4542 -87.0814 92° East 360 414 11,900 -1,388 Descending Atlanta Center
Wed 05:07:45 PM 32.4297 -86.9772 106° East 347 399 11,000 -650 Descending Atlanta Center
Wed 05:08:44 PM 32.4067 -86.8853 107° East 314 361 10,600 -950 Descending Atlanta Center
Wed 05:09:45 PM 32.3878 -86.7986 104° East 288 331 9,100 -1,700 Descending Atlanta Center
Wed 05:10:44 PM 32.3689 -86.7094 104° East 274 315 7,200 -1,815 Descending Atlanta Center
Wed 05:11:44 PM 32.3519 -86.6253 103° East 269 310 5,500 -1,856 Descending Atlanta Center
Wed 05:13:45 PM 32.3089 -86.4867 110° East 230 265 1,600 -1,934 Descending Atlanta Center

Login

Don't have an account? Register now (free) for customized features, flight alerts, and more!